Time;durP1;ratioP1;P1;durP2;ratioP2;P2;SDS_P1;SDS_P2;PMS_P1;PMS_P2;Temp;Humidity;BMP_temperature;BMP_pressure;BME280_temperature;BME280_humidity;BME280_pressure;Samples;Min_cycle;Max_cycle;Signal;HPM_P1;HPM_P2
2021/04/15 00:02:00;;;;;;;12.82;4.90;;;3.20;82.00;;;;;;5056864;28;20378;-73
2021/04/15 00:04:26;;;;;;;10.90;4.75;;;3.20;82.10;;;;;;5049803;28;20035;-76
2021/04/15 00:06:52;;;;;;;11.15;4.78;;;3.30;82.10;;;;;;5052322;28;20147;-79
2021/04/15 00:09:20;;;;;;;8.98;4.25;;;3.20;82.10;;;;;;5052959;28;20033;-77
2021/04/15 00:11:47;;;;;;;14.07;4.72;;;3.10;82.30;;;;;;5052685;28;20072;-79
2021/04/15 00:14:15;;;;;;;14.13;5.05;;;3.20;82.40;;;;;;5032037;28;20049;-79
2021/04/15 00:16:41;;;;;;;15.00;5.20;;;3.20;82.50;;;;;;5039892;28;20029;-77
2021/04/15 00:19:08;;;;;;;14.27;4.78;;;3.20;82.60;;;;;;5029380;28;20503;-80
2021/04/15 00:21:34;;;;;;;10.85;4.47;;;3.20;82.60;;;;;;5051988;28;20032;-77
2021/04/15 00:24:00;;;;;;;9.13;4.53;;;3.10;82.70;;;;;;5043172;28;20037;-76
2021/04/15 00:26:28;;;;;;;11.00;4.70;;;3.10;82.80;;;;;;5051506;28;20907;-72
2021/04/15 00:28:54;;;;;;;13.98;5.18;;;3.10;82.80;;;;;;5053363;28;20033;-73
2021/04/15 00:31:21;;;;;;;12.82;4.90;;;3.10;82.90;;;;;;5053736;28;20271;-74
2021/04/15 00:33:47;;;;;;;14.35;5.15;;;3.00;83.10;;;;;;5050657;28;20044;-78
2021/04/15 00:36:13;;;;;;;12.80;5.65;;;3.00;83.00;;;;;;5050981;28;20411;-73
2021/04/15 00:38:39;;;;;;;8.90;5.50;;;3.00;83.10;;;;;;5068552;28;20486;-74
2021/04/15 00:41:07;;;;;;;10.52;5.00;;;2.90;83.20;;;;;;5051360;28;20179;-72
2021/04/15 00:43:36;;;;;;;10.25;5.15;;;2.90;83.30;;;;;;5053362;28;20040;-73
2021/04/15 00:46:36;;;;;;;11.73;5.40;;;2.80;83.30;;;;;;5050600;28;20056;-73
2021/04/15 00:49:02;;;;;;;15.57;5.72;;;2.80;83.70;;;;;;5051932;28;20028;-73
2021/04/15 00:51:34;;;;;;;11.60;5.70;;;2.70;83.80;;;;;;5052495;28;20392;-73
2021/04/15 00:54:08;;;;;;;13.68;6.00;;;2.70;84.10;;;;;;5050385;28;20055;-74
2021/04/15 00:56:35;;;;;;;11.50;5.63;;;2.70;84.20;;;;;;5051589;28;20373;-74
2021/04/15 00:59:03;;;;;;;10.60;5.72;;;2.70;84.10;;;;;;5053702;28;20036;-78
2021/04/15 01:01:29;;;;;;;14.38;5.75;;;2.70;84.20;;;;;;5053360;28;20036;-81
2021/04/15 01:03:55;;;;;;;16.98;6.32;;;2.70;84.20;;;;;;5048431;28;20043;-77
2021/04/15 01:06:21;;;;;;;16.50;6.43;;;2.70;84.20;;;;;;5052719;28;20132;-72
2021/04/15 01:08:46;;;;;;;13.75;6.45;;;2.70;84.30;;;;;;5051134;28;20573;-73
2021/04/15 01:11:36;;;;;;;14.65;6.32;;;2.70;84.30;;;;;;5050373;28;20044;-74
2021/04/15 01:14:15;;;;;;;17.67;6.80;;;2.70;84.30;;;;;;5046609;28;20048;-78
2021/04/15 01:16:45;;;;;;;12.32;6.15;;;2.70;84.60;;;;;;5052351;28;20032;-73
2021/04/15 01:19:38;;;;;;;16.33;6.78;;;2.70;84.50;;;;;;5052822;28;20032;-75
2021/04/15 01:22:16;;;;;;;12.88;6.82;;;2.70;84.40;;;;;;5032992;28;20037;-77
2021/04/15 01:24:47;;;;;;;14.95;6.88;;;2.60;84.40;;;;;;5035057;28;20738;-75
2021/04/15 01:27:51;;;;;;;15.65;7.75;;;2.70;84.50;;;;;;5049364;28;20049;-73
2021/04/15 01:30:26;;;;;;;16.58;8.80;;;2.60;84.70;;;;;;5052688;28;20464;-72
2021/04/15 01:33:15;;;;;;;16.00;7.70;;;2.60;84.90;;;;;;5049439;28;20136;-73
2021/04/15 01:35:53;;;;;;;17.02;8.68;;;2.70;84.90;;;;;;5038969;28;20044;-74
2021/04/15 01:38:30;;;;;;;17.63;8.27;;;2.70;85.00;;;;;;5033571;28;20130;-78
2021/04/15 01:41:14;;;;;;;17.50;8.73;;;2.70;85.00;;;;;;5033945;28;20693;-78
2021/04/15 01:43:53;;;;;;;19.63;9.60;;;2.70;85.00;;;;;;5038040;28;20057;-77
2021/04/15 01:46:21;;;;;;;15.05;8.18;;;2.70;84.80;;;;;;5050688;28;20138;-75
2021/04/15 01:48:52;;;;;;;15.07;9.63;;;2.70;84.70;;;;;;5037481;28;20106;-72
2021/04/15 01:51:22;;;;;;;16.30;10.05;;;2.70;84.80;;;;;;5053498;28;20063;-75
2021/04/15 01:53:59;;;;;;;16.08;10.02;;;2.60;84.80;;;;;;5035764;28;20059;-76
2021/04/15 01:56:36;;;;;;;17.90;11.48;;;2.60;84.80;;;;;;5030621;28;20049;-79
2021/04/15 01:59:17;;;;;;;17.98;10.98;;;2.60;84.90;;;;;;5028883;28;20037;-74
2021/04/15 02:01:49;;;;;;;18.00;10.80;;;2.60;84.80;;;;;;5032410;28;20127;-73
2021/04/15 02:04:20;;;;;;;16.63;10.43;;;2.60;84.90;;;;;;5029619;28;20492;-78
2021/04/15 02:06:50;;;;;;;14.00;9.55;;;2.50;84.90;;;;;;5030165;28;20029;-74
2021/04/15 02:09:17;;;;;;;19.23;9.48;;;2.50;85.00;;;;;;5033234;28;20087;-72
2021/04/15 02:11:54;;;;;;;16.45;10.02;;;2.40;85.20;;;;;;5032896;28;20123;-75
2021/04/15 02:14:24;;;;;;;15.80;9.90;;;2.40;85.00;;;;;;5032663;28;20036;-73
2021/04/15 02:16:53;;;;;;;16.38;9.32;;;2.40;85.00;;;;;;5027267;28;20100;-77
2021/04/15 02:19:22;;;;;;;15.27;9.30;;;2.40;85.00;;;;;;5027938;28;20098;-72
2021/04/15 02:22:00;;;;;;;14.82;9.60;;;2.30;85.10;;;;;;5031684;28;20081;-76
2021/04/15 02:24:36;;;;;;;16.85;10.35;;;2.30;85.10;;;;;;5029130;28;20033;-75
2021/04/15 02:27:12;;;;;;;18.20;9.88;;;2.30;85.00;;;;;;5032116;28;20056;-76
2021/04/15 02:29:43;;;;;;;15.20;9.75;;;2.20;85.00;;;;;;5030202;28;20436;-79
2021/04/15 02:32:11;;;;;;;14.35;9.27;;;2.20;85.20;;;;;;5030600;28;20138;-77
2021/04/15 02:34:48;;;;;;;17.13;9.68;;;2.20;85.20;;;;;;5033039;28;20096;-79
2021/04/15 02:37:19;;;;;;;16.88;10.65;;;2.20;85.30;;;;;;5033191;28;20028;-78
2021/04/15 02:39:50;;;;;;;18.27;9.73;;;2.10;85.40;;;;;;5035366;28;20073;-77
2021/04/15 02:42:24;;;;;;;15.98;10.00;;;2.10;85.40;;;;;;5032234;28;20049;-75
2021/04/15 02:44:55;;;;;;;17.85;9.82;;;2.10;85.40;;;;;;5037384;28;20453;-74
2021/04/15 02:47:34;;;;;;;18.45;10.45;;;2.10;85.50;;;;;;5040036;28;20037;-75
2021/04/15 02:50:03;;;;;;;17.13;9.80;;;2.10;85.60;;;;;;5038142;28;20033;-80
2021/04/15 02:52:33;;;;;;;14.95;10.07;;;2.10;85.60;;;;;;5044209;28;20091;-77
2021/04/15 02:55:04;;;;;;;23.67;11.00;;;2.10;85.60;;;;;;5056164;28;20036;-74
2021/04/15 02:57:45;;;;;;;14.50;10.13;;;2.10;85.60;;;;;;5066654;28;20510;-76
2021/04/15 03:00:19;;;;;;;16.83;10.38;;;2.10;85.70;;;;;;5060580;28;21418;-75
2021/04/15 03:02:49;;;;;;;17.38;10.02;;;2.00;85.70;;;;;;5052713;28;20429;-76
2021/04/15 03:05:22;;;;;;;19.42;11.02;;;2.00;85.70;;;;;;5055573;28;20042;-74
2021/04/15 03:07:49;;;;;;;14.50;10.05;;;2.00;85.80;;;;;;5055483;28;20092;-75
2021/04/15 03:10:17;;;;;;;19.50;11.70;;;2.00;85.90;;;;;;5053778;28;20077;-75
2021/04/15 03:13:12;;;;;;;16.85;11.00;;;1.90;85.90;;;;;;5048920;28;20411;-75
2021/04/15 03:15:42;;;;;;;18.38;10.93;;;1.90;86.10;;;;;;5044865;28;20041;-75
2021/04/15 03:18:14;;;;;;;19.25;12.05;;;2.00;86.10;;;;;;5053718;28;20045;-74
2021/04/15 03:20:59;;;;;;;16.05;10.93;;;1.90;86.10;;;;;;5052685;28;20307;-75
2021/04/15 03:23:39;;;;;;;16.17;11.25;;;1.90;86.00;;;;;;5052565;28;20037;-78
2021/04/15 03:26:29;;;;;;;17.10;11.52;;;1.90;86.20;;;;;;5052774;28;20488;-78
2021/04/15 03:29:29;;;;;;;14.55;10.77;;;1.90;86.10;;;;;;5051617;28;20487;-78
2021/04/15 03:32:10;;;;;;;14.45;9.70;;;1.90;86.00;;;;;;5048938;28;20554;-74
2021/04/15 03:34:51;;;;;;;14.80;9.70;;;1.80;85.90;;;;;;5056801;28;20623;-78
2021/04/15 03:37:49;;;;;;;18.08;9.98;;;1.70;85.60;;;;;;5058431;28;20749;-78
2021/04/15 03:40:17;;;;;;;13.07;8.95;;;1.70;85.10;;;;;;5043022;28;20438;-75
2021/04/15 03:42:52;;;;;;;15.80;9.93;;;1.60;84.80;;;;;;5046399;28;20164;-74
2021/04/15 03:45:27;;;;;;;19.15;10.27;;;1.60;84.80;;;;;;5049348;28;20098;-77
2021/04/15 03:48:03;;;;;;;14.35;10.23;;;1.60;84.80;;;;;;5050501;28;20117;-75
2021/04/15 03:50:51;;;;;;;20.27;11.07;;;1.60;85.00;;;;;;5051321;28;20055;-75
2021/04/15 03:53:31;;;;;;;16.80;11.15;;;1.60;85.20;;;;;;5052111;28;20137;-78
2021/04/15 03:56:00;;;;;;;23.33;11.45;;;1.60;85.20;;;;;;5039354;28;20033;-80
2021/04/15 03:58:40;;;;;;;15.82;11.00;;;1.60;85.70;;;;;;5055374;28;20029;-77
2021/04/15 04:01:17;;;;;;;23.42;12.30;;;1.60;86.20;;;;;;5052000;28;20075;-77
2021/04/15 04:03:46;;;;;;;21.45;11.52;;;1.60;86.20;;;;;;5033931;28;20047;-75
2021/04/15 04:06:24;;;;;;;17.88;11.90;;;1.70;86.40;;;;;;5033235;28;20732;-79
2021/04/15 04:08:59;;;;;;;27.42;12.65;;;1.70;86.40;;;;;;5035297;28;20365;-74
2021/04/15 04:11:31;;;;;;;22.25;12.13;;;1.80;86.60;;;;;;5031712;28;20036;-78
2021/04/15 04:14:00;;;;;;;17.63;11.25;;;1.80;86.60;;;;;;5032896;28;20041;-80
2021/04/15 04:16:39;;;;;;;18.27;11.50;;;1.70;86.40;;;;;;5031256;28;20816;-75
2021/04/15 04:19:26;;;;;;;20.13;12.85;;;1.70;86.40;;;;;;5030962;28;20026;-78
2021/04/15 04:22:25;;;;;;;18.23;11.98;;;1.70;86.60;;;;;;5033706;28;20094;-78
2021/04/15 04:25:19;;;;;;;22.52;13.13;;;1.70;86.60;;;;;;5026173;28;20116;-79
2021/04/15 04:28:18;;;;;;;20.87;13.40;;;1.60;86.70;;;;;;5051812;28;20102;-73
2021/04/15 04:30:54;;;;;;;18.60;12.25;;;1.70;86.80;;;;;;5052132;28;20029;-74
2021/04/15 04:33:31;;;;;;;16.58;11.05;;;1.60;86.80;;;;;;5053504;28;20036;-79
2021/04/15 04:35:57;;;;;;;16.85;10.85;;;1.60;86.70;;;;;;5049617;28;20036;-74
2021/04/15 04:38:23;;;;;;;18.95;10.70;;;1.50;86.30;;;;;;5052380;28;20033;-77
2021/04/15 04:40:57;;;;;;;16.60;11.35;;;1.40;86.00;;;;;;5049348;28;20068;-81
2021/04/15 04:43:40;;;;;;;19.45;11.35;;;1.40;85.80;;;;;;5050618;28;20059;-74
2021/04/15 04:46:19;;;;;;;24.17;11.85;;;1.30;85.60;;;;;;5052145;28;20049;-76
2021/04/15 04:48:54;;;;;;;17.35;10.88;;;1.20;85.50;;;;;;5050466;28;20037;-75
2021/04/15 04:51:21;;;;;;;15.13;10.88;;;1.10;85.40;;;;;;5054045;28;20025;-74
2021/04/15 04:53:51;;;;;;;19.70;10.70;;;1.10;85.20;;;;;;5049951;28;20043;-76
2021/04/15 04:56:20;;;;;;;19.52;11.43;;;1.10;85.10;;;;;;5049116;28;20027;-74
2021/04/15 04:58:51;;;;;;;16.10;10.68;;;1.10;84.80;;;;;;5051128;28;20037;-81
2021/04/15 05:01:18;;;;;;;17.95;11.52;;;1.10;84.40;;;;;;5052414;28;20506;-77
2021/04/15 05:03:43;;;;;;;15.70;11.15;;;1.10;84.30;;;;;;5054482;28;20056;-80
2021/04/15 05:06:31;;;;;;;17.60;12.15;;;1.10;84.20;;;;;;5051125;28;20045;-77
2021/04/15 05:09:21;;;;;;;25.10;13.93;;;1.10;84.30;;;;;;5030369;28;20112;-74
2021/04/15 05:11:49;;;;;;;22.73;14.68;;;1.10;84.00;;;;;;5030362;28;20041;-75
2021/04/15 05:14:19;;;;;;;26.10;18.08;;;1.10;84.10;;;;;;5038177;28;20051;-76
2021/04/15 05:17:10;;;;;;;26.67;19.50;;;1.10;84.00;;;;;;5050818;28;21433;-74
2021/04/15 05:19:36;;;;;;;25.10;17.95;;;1.10;84.20;;;;;;5033219;28;20049;-75
2021/04/15 05:22:06;;;;;;;26.55;17.80;;;1.20;84.20;;;;;;5029629;28;20037;-76
2021/04/15 05:24:40;;;;;;;27.73;18.20;;;1.30;83.90;;;;;;5034938;28;20091;-75
2021/04/15 05:27:07;;;;;;;24.00;18.40;;;1.30;83.70;;;;;;5034654;28;20080;-79
2021/04/15 05:29:38;;;;;;;22.38;16.17;;;1.30;83.40;;;;;;5031346;28;20396;-75
2021/04/15 05:32:04;;;;;;;32.22;22.58;;;1.30;83.60;;;;;;5031323;28;20037;-78
2021/04/15 05:34:41;;;;;;;42.10;27.65;;;1.40;83.50;;;;;;5031404;28;20599;-74
2021/04/15 05:37:12;;;;;;;28.90;20.58;;;1.50;83.60;;;;;;5035102;28;20041;-77
2021/04/15 05:39:38;;;;;;;28.63;21.75;;;1.50;83.70;;;;;;5030570;28;20108;-76
2021/04/15 05:42:12;;;;;;;26.85;17.95;;;1.60;83.60;;;;;;5034360;28;20446;-80
2021/04/15 05:44:54;;;;;;;22.73;16.20;;;1.60;83.80;;;;;;5046654;28;21538;-75
2021/04/15 05:47:23;;;;;;;22.88;16.33;;;1.70;83.50;;;;;;5054247;28;20411;-76
2021/04/15 05:50:11;;;;;;;20.58;15.05;;;1.70;83.70;;;;;;5051457;28;20033;-74
2021/04/15 05:52:39;;;;;;;19.45;15.40;;;1.80;83.70;;;;;;5053462;28;20128;-80
2021/04/15 05:55:17;;;;;;;20.38;14.32;;;1.90;83.60;;;;;;5049444;28;20441;-81
2021/04/15 05:57:48;;;;;;;18.58;13.48;;;1.90;83.70;;;;;;5055633;28;20952;-76
2021/04/15 06:00:34;;;;;;;20.27;13.73;;;2.00;83.70;;;;;;5050497;28;20038;-73
2021/04/15 06:03:12;;;;;;;18.63;14.00;;;2.10;83.60;;;;;;5047880;28;20036;-80
2021/04/15 06:05:51;;;;;;;21.77;14.18;;;2.20;83.50;;;;;;5047077;28;20568;-79
2021/04/15 06:08:17;;;;;;;20.17;13.45;;;2.30;83.50;;;;;;5051988;28;20120;-73
2021/04/15 06:10:43;;;;;;;19.95;13.95;;;2.40;83.60;;;;;;5062221;28;20028;-77
2021/04/15 06:13:38;;;;;;;21.20;14.50;;;2.50;83.80;;;;;;5057051;28;20131;-77
2021/04/15 06:16:08;;;;;;;29.58;15.50;;;2.60;84.00;;;;;;5054996;28;20079;-73
2021/04/15 06:18:45;;;;;;;26.27;15.88;;;2.60;84.40;;;;;;5055143;28;20063;-75
2021/04/15 06:21:35;;;;;;;21.25;15.63;;;2.70;84.50;;;;;;5054424;28;20469;-74
2021/04/15 06:24:08;;;;;;;22.45;14.95;;;2.80;84.60;;;;;;5051149;28;20040;-75
2021/04/15 06:26:53;;;;;;;21.08;15.32;;;2.90;84.50;;;;;;5051100;28;20108;-78
2021/04/15 06:29:47;;;;;;;28.02;20.02;;;3.10;84.50;;;;;;5054420;28;20136;-76
2021/04/15 06:32:40;;;;;;;30.20;21.48;;;3.20;84.10;;;;;;5041938;28;20064;-76
2021/04/15 06:35:09;;;;;;;21.50;15.80;;;3.40;84.00;;;;;;5030330;28;20083;-78
2021/04/15 06:37:49;;;;;;;26.67;16.45;;;3.60;83.50;;;;;;5041615;28;20037;-78
2021/04/15 06:40:45;;;;;;;23.10;14.73;;;3.80;83.30;;;;;;5044538;28;20503;-74
2021/04/15 06:43:33;;;;;;;18.63;13.27;;;4.10;82.50;;;;;;5053230;28;20478;-80
2021/04/15 06:46:46;;;;;;;18.77;12.43;;;4.20;81.30;;;;;;5011446;28;20540;-75
2021/04/15 06:49:23;;;;;;;20.52;12.00;;;4.40;81.10;;;;;;5044132;28;20387;-75
2021/04/15 06:52:02;;;;;;;19.58;11.65;;;4.50;80.70;;;;;;5055266;28;20033;-77
2021/04/15 06:54:51;;;;;;;19.15;11.30;;;4.50;80.10;;;;;;5034524;28;20489;-78
2021/04/15 06:57:35;;;;;;;21.05;11.15;;;4.60;80.40;;;;;;5053355;28;20028;-74
2021/04/15 07:00:44;;;;;;;22.00;11.48;;;4.60;80.10;;;;;;5050906;28;20679;-71
2021/04/15 07:03:35;;;;;;;27.48;15.63;;;4.60;80.20;;;;;;5013529;28;20041;-69
2021/04/15 07:06:25;;;;;;;18.38;11.82;;;4.70;80.10;;;;;;5049717;28;20379;-69
2021/04/15 07:09:10;;;;;;;22.40;14.57;;;4.90;79.70;;;;;;5035056;28;20412;-69
2021/04/15 07:12:12;;;;;;;18.20;11.05;;;5.10;79.70;;;;;;5028429;28;20049;-76
2021/04/15 07:15:02;;;;;;;27.05;17.05;;;5.30;78.50;;;;;;5032275;28;20052;-71
2021/04/15 07:17:36;;;;;;;20.95;12.93;;;5.50;77.80;;;;;;5029951;28;20037;-73
2021/04/15 07:20:42;;;;;;;16.73;9.48;;;5.70;78.00;;;;;;5032069;28;20127;-69
2021/04/15 07:23:24;;;;;;;20.00;11.73;;;5.90;77.10;;;;;;5030726;28;20143;-73
2021/04/15 07:26:17;;;;;;;14.63;8.32;;;6.10;76.60;;;;;;5033023;28;21030;-74
2021/04/15 07:29:10;;;;;;;17.40;7.88;;;6.30;76.20;;;;;;5034681;28;20041;-68
2021/04/15 07:32:08;;;;;;;11.55;6.78;;;6.50;75.50;;;;;;5033897;28;20051;-72
2021/04/15 07:34:45;;;;;;;15.15;7.82;;;6.80;73.70;;;;;;5022172;28;20034;-69
2021/04/15 07:37:11;;;;;;;17.08;9.43;;;7.00;73.90;;;;;;5028316;28;20395;-71
2021/04/15 07:39:48;;;;;;;12.98;6.35;;;7.10;72.70;;;;;;5031349;28;20044;-71
2021/04/15 07:42:24;;;;;;;10.27;5.85;;;7.40;71.10;;;;;;5032105;28;20047;-69
2021/04/15 07:45:10;;;;;;;11.30;5.53;;;7.40;69.80;;;;;;5031257;28;20072;-74
2021/04/15 07:48:07;;;;;;;10.50;5.43;;;7.70;69.50;;;;;;5054423;28;20052;-69
2021/04/15 07:51:10;;;;;;;9.23;4.90;;;7.60;67.30;;;;;;5052840;28;20046;-69
2021/04/15 07:53:57;;;;;;;8.52;5.18;;;7.70;68.20;;;;;;5036547;28;20597;-71
2021/04/15 07:56:41;;;;;;;9.27;4.45;;;7.90;67.50;;;;;;5041809;28;20385;-71
2021/04/15 07:59:44;;;;;;;8.98;4.90;;;8.00;66.60;;;;;;5031392;28;20040;-70
2021/04/15 08:02:39;;;;;;;8.23;3.80;;;8.20;66.10;;;;;;5049746;28;20048;-73
2021/04/15 08:05:17;;;;;;;7.15;3.08;;;8.30;64.50;;;;;;5050017;28;20037;-72
2021/04/15 08:08:00;;;;;;;9.88;4.07;;;8.20;63.60;;;;;;5052920;28;21617;-74
2021/04/15 08:11:07;;;;;;;9.70;4.00;;;8.30;64.60;;;;;;5049450;28;20033;-74
2021/04/15 08:13:48;;;;;;;9.13;3.55;;;8.40;63.30;;;;;;5049162;28;20115;-73
2021/04/15 08:16:32;;;;;;;9.23;3.17;;;8.80;62.80;;;;;;5053134;28;20081;-72
2021/04/15 08:19:19;;;;;;;9.07;3.13;;;9.00;61.20;;;;;;5040094;28;20056;-71
2021/04/15 08:22:04;;;;;;;15.68;7.78;;;9.00;61.00;;;;;;5054415;28;20068;-71
2021/04/15 08:24:41;;;;;;;6.18;2.63;;;9.40;60.20;;;;;;5032072;28;20052;-69
2021/04/15 08:27:40;;;;;;;9.68;3.40;;;9.10;60.40;;;;;;5033333;28;20084;-68
2021/04/15 08:30:12;;;;;;;7.90;2.60;;;8.70;60.50;;;;;;5032446;28;20037;-69
2021/04/15 08:32:53;;;;;;;9.55;2.83;;;8.60;61.90;;;;;;5031704;28;20045;-68
2021/04/15 08:35:28;;;;;;;8.55;3.00;;;8.20;61.90;;;;;;5031783;28;20456;-72
2021/04/15 08:38:14;;;;;;;9.45;3.08;;;8.00;63.00;;;;;;5033851;28;20106;-73
2021/04/15 08:40:49;;;;;;;7.63;2.90;;;8.10;63.60;;;;;;5033716;28;20489;-71
2021/04/15 08:43:33;;;;;;;6.97;2.97;;;8.30;62.20;;;;;;5037243;28;20053;-69
2021/04/15 08:46:24;;;;;;;6.22;2.78;;;8.40;61.60;;;;;;5035336;28;20052;-72
2021/04/15 08:49:08;;;;;;;7.25;3.40;;;8.20;61.40;;;;;;5034917;28;20143;-70
2021/04/15 08:51:46;;;;;;;8.80;2.70;;;8.10;63.60;;;;;;5032964;28;20045;-71
2021/04/15 08:54:40;;;;;;;6.32;2.50;;;7.70;65.20;;;;;;5029744;28;20037;-69
2021/04/15 08:57:43;;;;;;;6.97;2.83;;;7.40;67.20;;;;;;5029209;28;20574;-73
2021/04/15 09:00:18;;;;;;;7.22;2.28;;;7.10;68.30;;;;;;5030901;28;20388;-73
2021/04/15 09:02:52;;;;;;;4.40;1.98;;;7.00;68.80;;;;;;5029589;28;20503;-72
2021/04/15 09:05:25;;;;;;;5.88;2.00;;;6.80;69.70;;;;;;5031194;28;20388;-70
2021/04/15 09:08:01;;;;;;;11.95;4.20;;;6.80;70.30;;;;;;5029872;28;20496;-69
2021/04/15 09:10:56;;;;;;;6.07;2.10;;;6.80;71.10;;;;;;5050771;28;20040;-70
2021/04/15 09:13:24;;;;;;;5.07;1.93;;;6.70;71.70;;;;;;5052119;28;20051;-71
2021/04/15 09:16:02;;;;;;;5.68;2.00;;;6.60;72.10;;;;;;5051523;28;20291;-74
2021/04/15 09:18:36;;;;;;;8.60;3.10;;;6.60;73.00;;;;;;5052131;28;20052;-71
2021/04/15 09:21:30;;;;;;;8.63;3.35;;;6.70;73.70;;;;;;5051384;28;20094;-73
2021/04/15 09:24:02;;;;;;;8.32;2.78;;;6.90;74.30;;;;;;5033629;28;20041;-70
2021/04/15 09:27:07;;;;;;;6.72;2.50;;;6.90;74.80;;;;;;5058902;28;20052;-70
2021/04/15 09:29:54;;;;;;;4.75;2.45;;;6.90;74.70;;;;;;5047607;28;20206;-73
2021/04/15 09:32:52;;;;;;;5.30;2.50;;;7.10;74.30;;;;;;5053147;28;20032;-71
2021/04/15 09:35:54;;;;;;;5.20;2.28;;;7.30;74.20;;;;;;5053635;28;20132;-74
2021/04/15 09:38:59;;;;;;;4.75;2.08;;;7.40;73.10;;;;;;5018970;28;20128;-70
2021/04/15 09:41:37;;;;;;;5.60;2.25;;;7.30;70.70;;;;;;5032355;28;20033;-68
2021/04/15 09:44:19;;;;;;;9.02;2.90;;;7.40;71.20;;;;;;5029960;28;20049;-74
2021/04/15 09:47:04;;;;;;;4.85;2.10;;;7.70;70.80;;;;;;5032848;28;20393;-69
2021/04/15 09:49:44;;;;;;;9.05;3.60;;;7.80;70.40;;;;;;5030734;28;20063;-75
2021/04/15 09:52:42;;;;;;;7.32;2.60;;;8.00;70.50;;;;;;5031569;28;20029;-74
2021/04/15 09:55:13;;;;;;;9.07;4.20;;;8.10;70.40;;;;;;5027785;28;20040;-73
2021/04/15 09:57:59;;;;;;;6.45;2.85;;;8.40;70.90;;;;;;5033235;28;20051;-72
2021/04/15 10:00:32;;;;;;;7.13;2.42;;;8.80;69.70;;;;;;5029608;28;20049;-71
2021/04/15 10:03:09;;;;;;;10.82;4.40;;;8.80;67.00;;;;;;5031514;28;20029;-70
2021/04/15 10:06:03;;;;;;;7.10;2.83;;;8.80;64.80;;;;;;5026998;28;20488;-73
2021/04/15 10:08:51;;;;;;;7.47;2.80;;;9.10;65.70;;;;;;5002000;28;20550;-69
2021/04/15 10:11:38;;;;;;;5.45;3.13;;;9.20;64.70;;;;;;5022379;28;20040;-71
2021/04/15 10:14:16;;;;;;;5.80;2.90;;;9.30;65.50;;;;;;5027601;28;20049;-69
2021/04/15 10:16:49;;;;;;;6.63;3.15;;;9.30;63.70;;;;;;5031078;28;20047;-70
2021/04/15 10:19:58;;;;;;;9.38;2.60;;;9.70;61.90;;;;;;5033105;28;20031;-74
2021/04/15 10:22:49;;;;;;;7.50;2.92;;;9.80;59.60;;;;;;5033191;28;20045;-70
2021/04/15 10:25:22;;;;;;;7.53;2.72;;;9.60;61.20;;;;;;5031339;28;20045;-69
2021/04/15 10:28:09;;;;;;;7.65;2.63;;;9.60;60.00;;;;;;5033047;28;20049;-72
2021/04/15 10:31:09;;;;;;;7.72;3.13;;;9.90;60.20;;;;;;5031982;28;20043;-67
2021/04/15 10:34:26;;;;;;;7.85;2.50;;;10.00;57.70;;;;;;5026948;28;20116;-67
2021/04/15 10:36:51;;;;;;;4.53;2.60;;;9.90;56.40;;;;;;5012383;28;20878;-71
2021/04/15 10:39:38;;;;;;;5.90;2.53;;;9.50;57.20;;;;;;5029346;28;20044;-67
2021/04/15 10:42:34;;;;;;;7.78;2.80;;;9.60;58.20;;;;;;5037181;28;20029;-73
2021/04/15 10:45:30;;;;;;;10.57;2.90;;;9.60;57.20;;;;;;5037285;28;20926;-69
2021/04/15 10:48:02;;;;;;;8.05;3.03;;;9.60;59.30;;;;;;5047243;28;20045;-66
2021/04/15 10:50:49;;;;;;;6.38;2.40;;;9.50;59.70;;;;;;5047331;28;20041;-68
2021/04/15 10:53:40;;;;;;;8.35;2.70;;;9.20;59.80;;;;;;5048398;28;20033;-72
2021/04/15 10:56:29;;;;;;;5.57;2.67;;;8.90;58.80;;;;;;5045234;28;20051;-67
2021/04/15 10:59:07;;;;;;;7.45;2.90;;;9.10;57.70;;;;;;5058937;28;20035;-67
2021/04/15 11:01:35;;;;;;;7.78;2.53;;;8.90;57.00;;;;;;5055554;28;20053;-65
2021/04/15 11:04:08;;;;;;;6.63;2.95;;;8.90;57.50;;;;;;5046719;28;21170;-69
2021/04/15 11:06:38;;;;;;;7.30;2.75;;;9.10;58.10;;;;;;5049347;28;20040;-68
2021/04/15 11:09:40;;;;;;;7.47;3.40;;;9.00;58.70;;;;;;5057356;28;20025;-66
2021/04/15 11:12:30;;;;;;;8.75;3.00;;;9.10;59.60;;;;;;5026020;28;20491;-68
2021/04/15 11:15:09;;;;;;;7.47;2.65;;;9.30;58.40;;;;;;5054268;28;20049;-68
2021/04/15 11:17:38;;;;;;;6.25;2.88;;;9.40;57.80;;;;;;5033482;28;20059;-68
2021/04/15 11:20:24;;;;;;;5.60;2.78;;;9.30;56.60;;;;;;5039417;28;20596;-68
2021/04/15 11:23:01;;;;;;;5.80;2.50;;;9.50;57.30;;;;;;5041727;28;20368;-66
2021/04/15 11:25:40;;;;;;;6.47;2.95;;;9.50;55.80;;;;;;5042057;28;21396;-67
2021/04/15 11:28:12;;;;;;;8.95;3.33;;;9.40;56.60;;;;;;5036853;28;20376;-67
2021/04/15 11:30:54;;;;;;;7.32;3.47;;;9.50;56.90;;;;;;5041674;28;20029;-67
2021/04/15 11:33:43;;;;;;;6.80;2.85;;;9.60;56.70;;;;;;5040249;28;20048;-67
2021/04/15 11:36:23;;;;;;;6.93;3.45;;;10.20;56.30;;;;;;5036866;28;20044;-67
2021/04/15 11:39:04;;;;;;;7.43;3.17;;;10.40;53.80;;;;;;5038059;28;20427;-66
2021/04/15 11:41:45;;;;;;;10.20;3.28;;;10.50;52.60;;;;;;5040726;28;20070;-67
2021/04/15 11:44:22;;;;;;;7.97;2.92;;;10.40;53.40;;;;;;5037354;28;20053;-67
2021/04/15 11:46:48;;;;;;;8.50;4.00;;;10.50;53.40;;;;;;5038407;28;20121;-66
2021/04/15 11:49:20;;;;;;;7.72;3.70;;;10.80;52.90;;;;;;5041453;28;20145;-67
2021/04/15 11:51:59;;;;;;;7.78;2.50;;;11.30;50.00;;;;;;5040367;28;20033;-68
2021/04/15 11:54:32;;;;;;;7.75;2.88;;;11.60;48.20;;;;;;5042834;28;20045;-67
2021/04/15 11:57:13;;;;;;;9.18;3.13;;;11.00;48.70;;;;;;5036392;28;20090;-67
2021/04/15 11:59:39;;;;;;;9.00;3.25;;;11.00;49.00;;;;;;5039021;28;20029;-67
2021/04/15 12:02:17;;;;;;;6.72;2.92;;;10.90;50.70;;;;;;5034949;28;20036;-70
2021/04/15 12:04:43;;;;;;;7.40;3.65;;;11.20;50.10;;;;;;5034094;28;20053;-67
2021/04/15 12:07:22;;;;;;;7.72;3.83;;;10.20;52.10;;;;;;5057641;28;20389;-68
2021/04/15 12:09:49;;;;;;;8.48;4.28;;;10.20;53.20;;;;;;5029954;28;20091;-67
2021/04/15 12:12:32;;;;;;;8.63;4.15;;;10.20;52.00;;;;;;5036788;28;20045;-67
2021/04/15 12:14:58;;;;;;;9.07;3.90;;;10.00;52.60;;;;;;5041017;28;20141;-69
2021/04/15 12:17:32;;;;;;;7.47;3.67;;;9.70;52.60;;;;;;5040801;28;20021;-72
2021/04/15 12:20:05;;;;;;;8.43;4.43;;;9.40;54.00;;;;;;5041121;28;20388;-68
2021/04/15 12:23:03;;;;;;;7.30;4.15;;;9.60;55.10;;;;;;5033739;28;20504;-67
2021/04/15 12:25:36;;;;;;;9.85;4.38;;;9.70;54.60;;;;;;5040363;28;20045;-69
2021/04/15 12:28:39;;;;;;;8.68;4.30;;;9.80;54.70;;;;;;5038781;28;20045;-69
2021/04/15 12:31:22;;;;;;;10.27;5.32;;;9.90;53.00;;;;;;5033302;28;20091;-66
2021/04/15 12:34:13;;;;;;;11.57;5.57;;;10.10;54.10;;;;;;5043186;28;20183;-67
2021/04/15 12:36:45;;;;;;;12.48;6.78;;;9.90;52.50;;;;;;5053572;28;20029;-66
2021/04/15 12:39:21;;;;;;;8.93;5.50;;;9.80;52.00;;;;;;5064799;28;20082;-68
2021/04/15 12:41:48;;;;;;;12.13;6.05;;;9.90;50.80;;;;;;5060325;28;20036;-68
2021/04/15 12:44:22;;;;;;;8.98;4.90;;;9.80;51.40;;;;;;5058370;28;20059;-67
2021/04/15 12:46:49;;;;;;;8.80;4.32;;;10.40;51.20;;;;;;5060245;28;20067;-68
2021/04/15 12:49:19;;;;;;;10.75;4.93;;;10.70;50.20;;;;;;5054388;28;20029;-67
2021/04/15 12:51:56;;;;;;;8.98;4.47;;;11.20;50.30;;;;;;5042898;28;20032;-71
2021/04/15 12:54:27;;;;;;;9.38;4.13;;;12.10;48.30;;;;;;5052017;28;20575;-68
2021/04/15 12:56:57;;;;;;;6.68;4.22;;;12.80;46.10;;;;;;5047588;28;20048;-71
2021/04/15 12:59:28;;;;;;;8.18;3.80;;;12.60;45.90;;;;;;5057153;28;20037;-66
2021/04/15 13:01:55;;;;;;;6.75;3.28;;;12.10;46.40;;;;;;5050824;28;20396;-70
2021/04/15 13:04:42;;;;;;;6.18;3.20;;;11.40;47.60;;;;;;5050609;28;20044;-70
2021/04/15 13:07:36;;;;;;;7.40;3.90;;;10.90;49.40;;;;;;5059269;28;20068;-68
2021/04/15 13:10:29;;;;;;;7.82;3.65;;;10.60;49.60;;;;;;5059370;28;20037;-69
2021/04/15 13:12:57;;;;;;;8.90;3.85;;;10.30;51.30;;;;;;5055666;28;20124;-70
2021/04/15 13:15:23;;;;;;;8.60;4.70;;;10.20;51.30;;;;;;5061730;28;20048;-69
2021/04/15 13:17:53;;;;;;;10.38;4.72;;;10.20;51.70;;;;;;5056763;28;20033;-67
2021/04/15 13:20:19;;;;;;;10.95;5.80;;;10.20;52.70;;;;;;5053296;28;20060;-68
2021/04/15 13:22:49;;;;;;;13.77;6.13;;;10.00;53.30;;;;;;5054495;28;20699;-67
2021/04/15 13:25:19;;;;;;;12.43;6.72;;;9.80;53.70;;;;;;5062168;28;20051;-68
2021/04/15 13:27:59;;;;;;;12.13;7.13;;;9.80;53.60;;;;;;5072349;28;20045;-67
2021/04/15 13:30:54;;;;;;;14.10;7.55;;;9.60;51.80;;;;;;5040577;28;20053;-68
2021/04/15 13:34:01;;;;;;;11.45;7.32;;;9.30;52.90;;;;;;5056644;28;20563;-68
2021/04/15 13:36:28;;;;;;;11.45;7.00;;;9.10;53.20;;;;;;5057847;28;20090;-69
2021/04/15 13:38:56;;;;;;;10.15;6.40;;;9.20;53.80;;;;;;5058703;28;20068;-69
2021/04/15 13:41:21;;;;;;;10.88;6.00;;;9.10;53.50;;;;;;5061333;28;20032;-68
2021/04/15 13:44:13;;;;;;;10.63;6.25;;;9.20;53.20;;;;;;5055906;28;20098;-70
2021/04/15 13:46:41;;;;;;;11.07;5.60;;;9.30;53.50;;;;;;5050203;28;20064;-68